sensor_id;sensor_type;location;lat;lon;timestamp;temperature;humidity
3071;DHT22;1546;47.208;9.038;2023-02-11T00:00:43;-0.10;97.30
3071;DHT22;1546;47.208;9.038;2023-02-11T00:03:10;-0.10;97.60
3071;DHT22;1546;47.208;9.038;2023-02-11T00:05:37;-0.10;97.50
3071;DHT22;1546;47.208;9.038;2023-02-11T00:08:04;-0.10;97.30
3071;DHT22;1546;47.208;9.038;2023-02-11T00:10:31;-0.10;97.20
3071;DHT22;1546;47.208;9.038;2023-02-11T00:12:59;-0.10;97.30
3071;DHT22;1546;47.208;9.038;2023-02-11T00:15:26;-0.10;97.30
3071;DHT22;1546;47.208;9.038;2023-02-11T00:17:52;-0.10;97.40
3071;DHT22;1546;47.208;9.038;2023-02-11T00:20:19;-0.10;97.50
3071;DHT22;1546;47.208;9.038;2023-02-11T00:22:46;-0.10;97.30
3071;DHT22;1546;47.208;9.038;2023-02-11T00:25:13;-0.20;97.20
3071;DHT22;1546;47.208;9.038;2023-02-11T00:27:39;-0.20;97.30
3071;DHT22;1546;47.208;9.038;2023-02-11T00:30:09;-0.20;97.20
3071;DHT22;1546;47.208;9.038;2023-02-11T00:32:36;-0.20;97.30
3071;DHT22;1546;47.208;9.038;2023-02-11T00:35:03;-0.30;97.60
3071;DHT22;1546;47.208;9.038;2023-02-11T00:37:30;-0.40;97.80
3071;DHT22;1546;47.208;9.038;2023-02-11T00:40:01;-0.40;98.00
3071;DHT22;1546;47.208;9.038;2023-02-11T00:42:28;-0.40;98.00
3071;DHT22;1546;47.208;9.038;2023-02-11T00:44:54;-0.40;98.10
3071;DHT22;1546;47.208;9.038;2023-02-11T00:47:23;-0.50;98.60
3071;DHT22;1546;47.208;9.038;2023-02-11T00:49:49;-0.50;99.00
3071;DHT22;1546;47.208;9.038;2023-02-11T00:52:16;-0.50;98.90
3071;DHT22;1546;47.208;9.038;2023-02-11T00:54:43;-0.50;98.90
3071;DHT22;1546;47.208;9.038;2023-02-11T00:57:10;-0.50;98.80
3071;DHT22;1546;47.208;9.038;2023-02-11T00:59:37;-0.60;98.30
3071;DHT22;1546;47.208;9.038;2023-02-11T01:02:03;-0.80;98.40
3071;DHT22;1546;47.208;9.038;2023-02-11T01:04:32;-0.70;98.90
3071;DHT22;1546;47.208;9.038;2023-02-11T01:06:59;-0.50;98.00
3071;DHT22;1546;47.208;9.038;2023-02-11T01:09:26;-0.30;96.90
3071;DHT22;1546;47.208;9.038;2023-02-11T01:11:52;-0.10;96.40
3071;DHT22;1546;47.208;9.038;2023-02-11T01:14:19;-0.10;96.10
3071;DHT22;1546;47.208;9.038;2023-02-11T01:16:46;-0.20;96.30
3071;DHT22;1546;47.208;9.038;2023-02-11T01:19:13;-0.40;96.80
3071;DHT22;1546;47.208;9.038;2023-02-11T01:21:41;-0.50;97.20
3071;DHT22;1546;47.208;9.038;2023-02-11T01:24:08;-0.50;97.60
3071;DHT22;1546;47.208;9.038;2023-02-11T01:26:35;-0.40;97.50
3071;DHT22;1546;47.208;9.038;2023-02-11T01:29:02;-0.30;97.40
3071;DHT22;1546;47.208;9.038;2023-02-11T01:31:30;-0.40;97.40
3071;DHT22;1546;47.208;9.038;2023-02-11T01:33:56;-0.40;97.60
3071;DHT22;1546;47.208;9.038;2023-02-11T01:36:23;-0.40;97.80
3071;DHT22;1546;47.208;9.038;2023-02-11T01:38:51;-0.50;97.90
3071;DHT22;1546;47.208;9.038;2023-02-11T01:41:18;-0.50;97.80
3071;DHT22;1546;47.208;9.038;2023-02-11T01:43:47;-0.50;97.70
3071;DHT22;1546;47.208;9.038;2023-02-11T01:46:32;-0.50;97.60
3071;DHT22;1546;47.208;9.038;2023-02-11T01:49:03;-0.50;98.10
3071;DHT22;1546;47.208;9.038;2023-02-11T01:51:35;-0.60;98.30
3071;DHT22;1546;47.208;9.038;2023-02-11T01:54:08;-0.60;98.30
3071;DHT22;1546;47.208;9.038;2023-02-11T01:56:54;-0.60;97.80
3071;DHT22;1546;47.208;9.038;2023-02-11T01:59:44;-0.50;97.70
3071;DHT22;1546;47.208;9.038;2023-02-11T02:02:15;-0.50;97.70
3071;DHT22;1546;47.208;9.038;2023-02-11T02:04:49;-0.40;97.70
3071;DHT22;1546;47.208;9.038;2023-02-11T02:07:24;-0.40;97.00
3071;DHT22;1546;47.208;9.038;2023-02-11T02:09:59;-0.40;96.80
3071;DHT22;1546;47.208;9.038;2023-02-11T02:12:28;-0.50;96.90
3071;DHT22;1546;47.208;9.038;2023-02-11T02:15:17;-0.60;97.20
3071;DHT22;1546;47.208;9.038;2023-02-11T02:17:51;-0.50;97.20
3071;DHT22;1546;47.208;9.038;2023-02-11T02:20:34;-0.60;97.40
3071;DHT22;1546;47.208;9.038;2023-02-11T02:23:22;-0.40;97.70
3071;DHT22;1546;47.208;9.038;2023-02-11T02:29:28;-0.50;98.20
3071;DHT22;1546;47.208;9.038;2023-02-11T02:32:28;-0.60;98.50
3071;DHT22;1546;47.208;9.038;2023-02-11T02:35:01;-0.70;98.40
3071;DHT22;1546;47.208;9.038;2023-02-11T02:37:33;-0.80;98.40
3071;DHT22;1546;47.208;9.038;2023-02-11T02:40:05;-0.80;98.60
3071;DHT22;1546;47.208;9.038;2023-02-11T02:42:34;-0.70;98.10
3071;DHT22;1546;47.208;9.038;2023-02-11T02:45:02;-0.70;97.80
3071;DHT22;1546;47.208;9.038;2023-02-11T02:47:30;-0.60;98.00
3071;DHT22;1546;47.208;9.038;2023-02-11T02:49:57;-0.60;98.00
3071;DHT22;1546;47.208;9.038;2023-02-11T02:52:31;-0.60;98.10
3071;DHT22;1546;47.208;9.038;2023-02-11T02:55:11;-0.70;97.90
3071;DHT22;1546;47.208;9.038;2023-02-11T02:58:01;-0.70;98.00
3071;DHT22;1546;47.208;9.038;2023-02-11T03:00:35;-0.70;97.70
3071;DHT22;1546;47.208;9.038;2023-02-11T03:03:15;-0.70;97.70
3071;DHT22;1546;47.208;9.038;2023-02-11T03:05:48;-0.60;97.80
3071;DHT22;1546;47.208;9.038;2023-02-11T03:08:24;-0.60;97.40
3071;DHT22;1546;47.208;9.038;2023-02-11T03:10:53;-0.60;97.30
3071;DHT22;1546;47.208;9.038;2023-02-11T03:13:26;-0.50;96.80
3071;DHT22;1546;47.208;9.038;2023-02-11T03:15:59;-0.40;96.70
3071;DHT22;1546;47.208;9.038;2023-02-11T03:18:30;-0.40;96.60
3071;DHT22;1546;47.208;9.038;2023-02-11T03:20:59;-0.40;96.60
3071;DHT22;1546;47.208;9.038;2023-02-11T03:23:29;-0.40;96.70
3071;DHT22;1546;47.208;9.038;2023-02-11T03:26:01;-0.30;96.50
3071;DHT22;1546;47.208;9.038;2023-02-11T03:28:32;-0.40;96.50
3071;DHT22;1546;47.208;9.038;2023-02-11T03:31:08;-0.30;96.20
3071;DHT22;1546;47.208;9.038;2023-02-11T03:33:41;-0.20;96.30
3071;DHT22;1546;47.208;9.038;2023-02-11T03:36:10;-0.30;96.70
3071;DHT22;1546;47.208;9.038;2023-02-11T03:38:44;-0.40;97.40
3071;DHT22;1546;47.208;9.038;2023-02-11T03:41:14;-0.50;97.40
3071;DHT22;1546;47.208;9.038;2023-02-11T03:43:45;-0.60;97.40
3071;DHT22;1546;47.208;9.038;2023-02-11T03:46:16;-0.60;97.90
3071;DHT22;1546;47.208;9.038;2023-02-11T03:48:48;-0.60;97.80
3071;DHT22;1546;47.208;9.038;2023-02-11T03:51:19;-0.60;97.70
3071;DHT22;1546;47.208;9.038;2023-02-11T03:53:47;-0.70;97.90
3071;DHT22;1546;47.208;9.038;2023-02-11T03:56:22;-0.80;98.00
3071;DHT22;1546;47.208;9.038;2023-02-11T03:58:50;-0.80;97.80
3071;DHT22;1546;47.208;9.038;2023-02-11T04:01:17;-0.60;97.30
3071;DHT22;1546;47.208;9.038;2023-02-11T04:03:45;-0.60;97.30
3071;DHT22;1546;47.208;9.038;2023-02-11T04:06:12;-0.60;97.80
3071;DHT22;1546;47.208;9.038;2023-02-11T04:08:39;-0.70;98.50
3071;DHT22;1546;47.208;9.038;2023-02-11T04:11:06;-0.80;98.80
3071;DHT22;1546;47.208;9.038;2023-02-11T04:13:33;-0.80;98.80
3071;DHT22;1546;47.208;9.038;2023-02-11T04:16:00;-0.90;99.00
3071;DHT22;1546;47.208;9.038;2023-02-11T04:18:27;-0.90;99.20
3071;DHT22;1546;47.208;9.038;2023-02-11T04:20:55;-0.90;98.80
3071;DHT22;1546;47.208;9.038;2023-02-11T04:23:22;-0.90;99.00
3071;DHT22;1546;47.208;9.038;2023-02-11T04:25:49;-0.90;98.90
3071;DHT22;1546;47.208;9.038;2023-02-11T04:28:16;-1.00;99.00
3071;DHT22;1546;47.208;9.038;2023-02-11T04:30:43;-1.00;98.80
3071;DHT22;1546;47.208;9.038;2023-02-11T04:33:09;-1.20;98.80
3071;DHT22;1546;47.208;9.038;2023-02-11T04:35:36;-1.30;99.00
3071;DHT22;1546;47.208;9.038;2023-02-11T04:38:04;-1.10;98.90
3071;DHT22;1546;47.208;9.038;2023-02-11T04:40:31;-0.90;98.40
3071;DHT22;1546;47.208;9.038;2023-02-11T04:42:58;-0.80;97.90
3071;DHT22;1546;47.208;9.038;2023-02-11T04:45:25;-0.70;97.70
3071;DHT22;1546;47.208;9.038;2023-02-11T04:47:52;-0.70;97.60
3071;DHT22;1546;47.208;9.038;2023-02-11T04:50:19;-0.80;97.40
3071;DHT22;1546;47.208;9.038;2023-02-11T04:52:45;-0.90;97.70
3071;DHT22;1546;47.208;9.038;2023-02-11T04:55:14;-0.90;97.70
3071;DHT22;1546;47.208;9.038;2023-02-11T04:57:40;-0.80;97.80
3071;DHT22;1546;47.208;9.038;2023-02-11T05:00:08;-0.70;97.70
3071;DHT22;1546;47.208;9.038;2023-02-11T05:02:35;-0.60;97.70
3071;DHT22;1546;47.208;9.038;2023-02-11T05:05:03;-0.70;97.70
3071;DHT22;1546;47.208;9.038;2023-02-11T05:07:30;-0.60;97.70
3071;DHT22;1546;47.208;9.038;2023-02-11T05:09:57;-0.60;98.20
3071;DHT22;1546;47.208;9.038;2023-02-11T05:12:25;-0.60;98.70
3071;DHT22;1546;47.208;9.038;2023-02-11T05:14:52;-0.60;98.90
3071;DHT22;1546;47.208;9.038;2023-02-11T05:17:19;-0.60;99.00
3071;DHT22;1546;47.208;9.038;2023-02-11T05:19:46;-0.60;99.40
3071;DHT22;1546;47.208;9.038;2023-02-11T05:22:12;-0.60;98.70
3071;DHT22;1546;47.208;9.038;2023-02-11T05:24:39;-0.50;98.50
3071;DHT22;1546;47.208;9.038;2023-02-11T05:27:06;-0.40;97.90
3071;DHT22;1546;47.208;9.038;2023-02-11T05:29:34;-0.30;96.80
3071;DHT22;1546;47.208;9.038;2023-02-11T05:32:01;-0.30;97.10
3071;DHT22;1546;47.208;9.038;2023-02-11T05:34:28;-0.30;97.60
3071;DHT22;1546;47.208;9.038;2023-02-11T05:36:55;-0.40;97.60
3071;DHT22;1546;47.208;9.038;2023-02-11T05:39:22;-0.50;97.70
3071;DHT22;1546;47.208;9.038;2023-02-11T05:41:48;-0.50;97.20
3071;DHT22;1546;47.208;9.038;2023-02-11T05:44:15;-0.50;97.70
3071;DHT22;1546;47.208;9.038;2023-02-11T05:46:43;-0.60;98.50
3071;DHT22;1546;47.208;9.038;2023-02-11T05:49:10;-0.70;98.50
3071;DHT22;1546;47.208;9.038;2023-02-11T05:51:37;-0.70;98.60
3071;DHT22;1546;47.208;9.038;2023-02-11T05:54:04;-0.70;98.60
3071;DHT22;1546;47.208;9.038;2023-02-11T05:56:31;-0.70;99.10
3071;DHT22;1546;47.208;9.038;2023-02-11T05:58:58;-0.80;99.30
3071;DHT22;1546;47.208;9.038;2023-02-11T06:01:25;-0.90;99.50
3071;DHT22;1546;47.208;9.038;2023-02-11T06:03:53;-0.90;99.60
3071;DHT22;1546;47.208;9.038;2023-02-11T06:06:19;-0.90;99.30
3071;DHT22;1546;47.208;9.038;2023-02-11T06:08:46;-0.90;99.30
3071;DHT22;1546;47.208;9.038;2023-02-11T06:11:13;-0.80;98.90
3071;DHT22;1546;47.208;9.038;2023-02-11T06:13:40;-0.80;98.80
3071;DHT22;1546;47.208;9.038;2023-02-11T06:16:07;-0.80;98.80
3071;DHT22;1546;47.208;9.038;2023-02-11T06:18:34;-0.90;98.90
3071;DHT22;1546;47.208;9.038;2023-02-11T06:21:06;-0.80;98.70
3071;DHT22;1546;47.208;9.038;2023-02-11T06:23:33;-0.70;98.20
3071;DHT22;1546;47.208;9.038;2023-02-11T06:26:01;-0.70;98.30
3071;DHT22;1546;47.208;9.038;2023-02-11T06:28:28;-0.80;98.30
3071;DHT22;1546;47.208;9.038;2023-02-11T06:30:55;-0.70;98.20
3071;DHT22;1546;47.208;9.038;2023-02-11T06:33:22;-0.80;98.40
3071;DHT22;1546;47.208;9.038;2023-02-11T06:35:49;-0.70;98.40
3071;DHT22;1546;47.208;9.038;2023-02-11T06:38:17;-0.80;98.50
3071;DHT22;1546;47.208;9.038;2023-02-11T06:40:46;-0.80;99.00
3071;DHT22;1546;47.208;9.038;2023-02-11T06:43:13;-0.80;99.30
3071;DHT22;1546;47.208;9.038;2023-02-11T06:45:40;-0.90;99.30
3071;DHT22;1546;47.208;9.038;2023-02-11T06:48:07;-0.90;99.20
3071;DHT22;1546;47.208;9.038;2023-02-11T06:50:34;-1.00;99.20
3071;DHT22;1546;47.208;9.038;2023-02-11T06:53:01;-0.90;99.20
3071;DHT22;1546;47.208;9.038;2023-02-11T06:55:30;-0.80;98.70
3071;DHT22;1546;47.208;9.038;2023-02-11T06:57:56;-0.70;98.30
3071;DHT22;1546;47.208;9.038;2023-02-11T07:00:23;-0.70;98.50
3071;DHT22;1546;47.208;9.038;2023-02-11T07:02:51;-0.70;99.00
3071;DHT22;1546;47.208;9.038;2023-02-11T07:05:18;-0.80;99.10
3071;DHT22;1546;47.208;9.038;2023-02-11T07:07:44;-0.80;99.30
3071;DHT22;1546;47.208;9.038;2023-02-11T07:10:11;-0.80;99.40
3071;DHT22;1546;47.208;9.038;2023-02-11T07:12:40;-0.80;99.70
3071;DHT22;1546;47.208;9.038;2023-02-11T07:15:07;-0.80;99.90
3071;DHT22;1546;47.208;9.038;2023-02-11T07:17:34;-0.70;99.80
3071;DHT22;1546;47.208;9.038;2023-02-11T07:20:01;-0.70;99.80
3071;DHT22;1546;47.208;9.038;2023-02-11T07:22:27;-0.70;99.60
3071;DHT22;1546;47.208;9.038;2023-02-11T07:24:54;-0.70;99.60
3071;DHT22;1546;47.208;9.038;2023-02-11T07:27:21;-0.70;99.40
3071;DHT22;1546;47.208;9.038;2023-02-11T07:29:49;-0.70;98.90
3071;DHT22;1546;47.208;9.038;2023-02-11T07:32:16;-0.90;99.10
3071;DHT22;1546;47.208;9.038;2023-02-11T07:34:43;-1.10;99.20
3071;DHT22;1546;47.208;9.038;2023-02-11T07:37:10;-1.00;99.10
3071;DHT22;1546;47.208;9.038;2023-02-11T07:39:36;-0.80;98.60
3071;DHT22;1546;47.208;9.038;2023-02-11T07:42:04;-0.70;98.30
3071;DHT22;1546;47.208;9.038;2023-02-11T07:44:31;-0.60;98.00
3071;DHT22;1546;47.208;9.038;2023-02-11T07:47:00;-0.50;98.20
3071;DHT22;1546;47.208;9.038;2023-02-11T07:49:27;-0.40;98.60
3071;DHT22;1546;47.208;9.038;2023-02-11T07:51:54;-0.40;98.60
3071;DHT22;1546;47.208;9.038;2023-02-11T07:54:20;-0.40;98.70
3071;DHT22;1546;47.208;9.038;2023-02-11T07:56:47;-0.30;98.70
3071;DHT22;1546;47.208;9.038;2023-02-11T07:59:14;-0.10;98.50
3071;DHT22;1546;47.208;9.038;2023-02-11T08:01:41;0.00;97.90
3071;DHT22;1546;47.208;9.038;2023-02-11T08:04:09;0.00;97.60
3071;DHT22;1546;47.208;9.038;2023-02-11T08:06:39;0.10;97.80
3071;DHT22;1546;47.208;9.038;2023-02-11T08:09:08;0.10;98.20
3071;DHT22;1546;47.208;9.038;2023-02-11T08:11:35;0.10;98.60
3071;DHT22;1546;47.208;9.038;2023-02-11T08:14:02;0.10;98.90
3071;DHT22;1546;47.208;9.038;2023-02-11T08:16:30;0.10;98.80
3071;DHT22;1546;47.208;9.038;2023-02-11T08:19:00;0.20;98.90
3071;DHT22;1546;47.208;9.038;2023-02-11T08:21:28;0.20;98.90
3071;DHT22;1546;47.208;9.038;2023-02-11T08:23:56;0.30;98.60
3071;DHT22;1546;47.208;9.038;2023-02-11T08:26:25;0.30;98.30
3071;DHT22;1546;47.208;9.038;2023-02-11T08:28:54;0.50;98.40
3071;DHT22;1546;47.208;9.038;2023-02-11T08:31:23;0.60;98.20
3071;DHT22;1546;47.208;9.038;2023-02-11T08:33:51;0.70;98.50
3071;DHT22;1546;47.208;9.038;2023-02-11T08:36:21;0.80;99.00
3071;DHT22;1546;47.208;9.038;2023-02-11T08:38:49;1.00;99.80
3071;DHT22;1546;47.208;9.038;2023-02-11T08:41:16;1.50;99.50
3071;DHT22;1546;47.208;9.038;2023-02-11T08:43:44;2.00;98.70
3071;DHT22;1546;47.208;9.038;2023-02-11T08:46:12;2.40;97.70
3071;DHT22;1546;47.208;9.038;2023-02-11T08:48:40;2.80;96.30
3071;DHT22;1546;47.208;9.038;2023-02-11T08:51:08;3.00;95.90
3071;DHT22;1546;47.208;9.038;2023-02-11T08:53:35;2.90;95.30
3071;DHT22;1546;47.208;9.038;2023-02-11T08:56:04;2.80;95.70
3071;DHT22;1546;47.208;9.038;2023-02-11T08:58:31;2.70;95.40
3071;DHT22;1546;47.208;9.038;2023-02-11T09:00:58;2.80;94.80
3071;DHT22;1546;47.208;9.038;2023-02-11T09:03:25;3.00;94.50
3071;DHT22;1546;47.208;9.038;2023-02-11T09:05:52;3.10;94.10
3071;DHT22;1546;47.208;9.038;2023-02-11T09:08:19;3.30;93.70
3071;DHT22;1546;47.208;9.038;2023-02-11T09:10:46;3.50;94.00
3071;DHT22;1546;47.208;9.038;2023-02-11T09:13:15;3.60;94.30
3071;DHT22;1546;47.208;9.038;2023-02-11T09:15:44;3.80;93.90
3071;DHT22;1546;47.208;9.038;2023-02-11T09:18:11;3.90;93.40
3071;DHT22;1546;47.208;9.038;2023-02-11T09:20:37;4.00;92.60
3071;DHT22;1546;47.208;9.038;2023-02-11T09:23:04;4.20;92.40
3071;DHT22;1546;47.208;9.038;2023-02-11T09:25:31;4.40;92.70
3071;DHT22;1546;47.208;9.038;2023-02-11T09:27:58;4.70;92.80
3071;DHT22;1546;47.208;9.038;2023-02-11T09:30:26;4.80;92.20
3071;DHT22;1546;47.208;9.038;2023-02-11T09:32:53;5.00;91.90
3071;DHT22;1546;47.208;9.038;2023-02-11T09:35:19;5.10;91.10
3071;DHT22;1546;47.208;9.038;2023-02-11T09:37:46;5.20;90.70
3071;DHT22;1546;47.208;9.038;2023-02-11T09:40:14;5.20;90.80
3071;DHT22;1546;47.208;9.038;2023-02-11T09:42:47;5.20;90.40
3071;DHT22;1546;47.208;9.038;2023-02-11T09:45:18;5.20;90.30
3071;DHT22;1546;47.208;9.038;2023-02-11T09:47:54;5.10;90.00
3071;DHT22;1546;47.208;9.038;2023-02-11T09:50:24;5.00;90.50
3071;DHT22;1546;47.208;9.038;2023-02-11T09:52:56;5.10;90.90
3071;DHT22;1546;47.208;9.038;2023-02-11T09:55:27;5.30;90.20
3071;DHT22;1546;47.208;9.038;2023-02-11T09:57:54;5.30;89.10
3071;DHT22;1546;47.208;9.038;2023-02-11T10:00:24;5.50;90.40
3071;DHT22;1546;47.208;9.038;2023-02-11T10:03:10;5.70;90.80
3071;DHT22;1546;47.208;9.038;2023-02-11T10:05:53;5.60;89.90
3071;DHT22;1546;47.208;9.038;2023-02-11T10:08:30;5.50;90.80
3071;DHT22;1546;47.208;9.038;2023-02-11T10:11:06;5.50;90.40
3071;DHT22;1546;47.208;9.038;2023-02-11T10:13:47;5.60;89.80
3071;DHT22;1546;47.208;9.038;2023-02-11T10:16:28;5.90;89.50
3071;DHT22;1546;47.208;9.038;2023-02-11T10:19:08;6.10;87.80
3071;DHT22;1546;47.208;9.038;2023-02-11T10:21:46;6.50;84.10
3071;DHT22;1546;47.208;9.038;2023-02-11T10:24:16;6.80;82.50
3071;DHT22;1546;47.208;9.038;2023-02-11T10:26:44;7.10;80.40
3071;DHT22;1546;47.208;9.038;2023-02-11T10:29:22;7.00;80.60
3071;DHT22;1546;47.208;9.038;2023-02-11T10:31:50;6.90;80.50
3071;DHT22;1546;47.208;9.038;2023-02-11T10:34:20;6.70;82.00
3071;DHT22;1546;47.208;9.038;2023-02-11T10:36:47;6.50;79.90
3071;DHT22;1546;47.208;9.038;2023-02-11T10:39:15;6.50;79.40
3071;DHT22;1546;47.208;9.038;2023-02-11T10:41:44;6.60;79.90
3071;DHT22;1546;47.208;9.038;2023-02-11T10:44:22;6.80;80.80
3071;DHT22;1546;47.208;9.038;2023-02-11T10:46:50;7.20;80.70
3071;DHT22;1546;47.208;9.038;2023-02-11T10:49:35;7.40;79.30
3071;DHT22;1546;47.208;9.038;2023-02-11T10:52:14;7.40;79.00
3071;DHT22;1546;47.208;9.038;2023-02-11T10:54:41;7.40;77.70
3071;DHT22;1546;47.208;9.038;2023-02-11T10:57:20;7.60;77.10
3071;DHT22;1546;47.208;9.038;2023-02-11T10:59:47;7.50;75.40
3071;DHT22;1546;47.208;9.038;2023-02-11T11:02:22;7.30;75.40
3071;DHT22;1546;47.208;9.038;2023-02-11T11:04:55;7.20;76.10
3071;DHT22;1546;47.208;9.038;2023-02-11T11:07:24;7.20;79.00
3071;DHT22;1546;47.208;9.038;2023-02-11T11:09:53;7.00;79.80
3071;DHT22;1546;47.208;9.038;2023-02-11T11:12:46;7.00;80.30
3071;DHT22;1546;47.208;9.038;2023-02-11T11:15:17;7.20;80.00
3071;DHT22;1546;47.208;9.038;2023-02-11T11:17:46;7.40;79.00
3071;DHT22;1546;47.208;9.038;2023-02-11T11:20:19;7.70;77.50
3071;DHT22;1546;47.208;9.038;2023-02-11T11:22:47;7.60;75.30
3071;DHT22;1546;47.208;9.038;2023-02-11T11:25:23;7.50;76.30
3071;DHT22;1546;47.208;9.038;2023-02-11T11:27:53;7.60;75.70
3071;DHT22;1546;47.208;9.038;2023-02-11T11:30:30;7.80;74.50
3071;DHT22;1546;47.208;9.038;2023-02-11T11:32:59;8.10;72.80
3071;DHT22;1546;47.208;9.038;2023-02-11T11:35:29;8.60;71.80
3071;DHT22;1546;47.208;9.038;2023-02-11T11:38:00;9.10;70.10
3071;DHT22;1546;47.208;9.038;2023-02-11T11:40:29;9.30;68.20
3071;DHT22;1546;47.208;9.038;2023-02-11T11:43:16;9.90;67.80
3071;DHT22;1546;47.208;9.038;2023-02-11T11:45:52;10.40;63.70
3071;DHT22;1546;47.208;9.038;2023-02-11T11:48:24;10.70;61.30
3071;DHT22;1546;47.208;9.038;2023-02-11T11:50:56;11.20;61.90
3071;DHT22;1546;47.208;9.038;2023-02-11T11:53:30;11.20;60.20
3071;DHT22;1546;47.208;9.038;2023-02-11T11:56:01;11.40;59.10
3071;DHT22;1546;47.208;9.038;2023-02-11T11:58:30;11.60;57.40
3071;DHT22;1546;47.208;9.038;2023-02-11T12:01:04;11.50;58.50
3071;DHT22;1546;47.208;9.038;2023-02-11T12:06:52;11.20;57.70
3071;DHT22;1546;47.208;9.038;2023-02-11T12:09:31;10.90;59.40
3071;DHT22;1546;47.208;9.038;2023-02-11T12:12:19;10.60;59.60
3071;DHT22;1546;47.208;9.038;2023-02-11T12:14:59;10.50;60.90
3071;DHT22;1546;47.208;9.038;2023-02-11T12:17:40;10.20;60.80
3071;DHT22;1546;47.208;9.038;2023-02-11T12:20:18;10.20;62.30
3071;DHT22;1546;47.208;9.038;2023-02-11T12:22:59;10.30;59.80
3071;DHT22;1546;47.208;9.038;2023-02-11T12:25:33;10.80;59.90
3071;DHT22;1546;47.208;9.038;2023-02-11T12:28:09;11.30;58.40
3071;DHT22;1546;47.208;9.038;2023-02-11T12:31:05;11.40;58.50
3071;DHT22;1546;47.208;9.038;2023-02-11T12:33:43;12.10;59.00
3071;DHT22;1546;47.208;9.038;2023-02-11T12:36:25;12.40;56.50
3071;DHT22;1546;47.208;9.038;2023-02-11T12:39:06;13.10;56.60
3071;DHT22;1546;47.208;9.038;2023-02-11T12:41:47;13.70;55.50
3071;DHT22;1546;47.208;9.038;2023-02-11T12:44:40;14.20;52.60
3071;DHT22;1546;47.208;9.038;2023-02-11T12:47:18;14.50;56.30
3071;DHT22;1546;47.208;9.038;2023-02-11T12:50:03;14.60;48.30
3071;DHT22;1546;47.208;9.038;2023-02-11T12:52:48;13.80;48.60
3071;DHT22;1546;47.208;9.038;2023-02-11T12:55:22;13.80;51.10
3071;DHT22;1546;47.208;9.038;2023-02-11T12:57:53;14.40;50.50
3071;DHT22;1546;47.208;9.038;2023-02-11T13:00:22;14.60;50.40
3071;DHT22;1546;47.208;9.038;2023-02-11T13:02:55;15.00;49.70
3071;DHT22;1546;47.208;9.038;2023-02-11T13:05:27;15.00;48.90
3071;DHT22;1546;47.208;9.038;2023-02-11T13:07:59;14.80;49.70
3071;DHT22;1546;47.208;9.038;2023-02-11T13:10:33;14.90;50.30
3071;DHT22;1546;47.208;9.038;2023-02-11T13:13:04;15.20;50.00
3071;DHT22;1546;47.208;9.038;2023-02-11T13:15:44;15.60;49.00
3071;DHT22;1546;47.208;9.038;2023-02-11T13:18:20;15.80;48.40
3071;DHT22;1546;47.208;9.038;2023-02-11T13:20:52;16.00;47.90
3071;DHT22;1546;47.208;9.038;2023-02-11T13:23:28;16.90;48.00
3071;DHT22;1546;47.208;9.038;2023-02-11T13:26:03;17.60;45.40
3071;DHT22;1546;47.208;9.038;2023-02-11T13:28:43;17.70;45.70
3071;DHT22;1546;47.208;9.038;2023-02-11T13:31:13;18.20;45.30
3071;DHT22;1546;47.208;9.038;2023-02-11T13:33:41;18.20;44.20
3071;DHT22;1546;47.208;9.038;2023-02-11T13:36:18;17.10;44.00
3071;DHT22;1546;47.208;9.038;2023-02-11T13:38:54;16.60;45.60
3071;DHT22;1546;47.208;9.038;2023-02-11T13:41:30;16.20;46.50
3071;DHT22;1546;47.208;9.038;2023-02-11T13:44:12;16.20;46.40
3071;DHT22;1546;47.208;9.038;2023-02-11T13:46:49;16.70;46.30
3071;DHT22;1546;47.208;9.038;2023-02-11T13:49:23;17.40;47.30
3071;DHT22;1546;47.208;9.038;2023-02-11T13:51:52;17.80;47.20
3071;DHT22;1546;47.208;9.038;2023-02-11T13:54:28;17.30;45.90
3071;DHT22;1546;47.208;9.038;2023-02-11T13:57:31;17.00;48.30
3071;DHT22;1546;47.208;9.038;2023-02-11T14:00:00;17.10;45.80
3071;DHT22;1546;47.208;9.038;2023-02-11T14:02:30;16.60;45.70
3071;DHT22;1546;47.208;9.038;2023-02-11T14:05:27;16.00;46.60
3071;DHT22;1546;47.208;9.038;2023-02-11T14:08:23;16.30;47.10
3071;DHT22;1546;47.208;9.038;2023-02-11T14:14:13;16.20;46.00
3071;DHT22;1546;47.208;9.038;2023-02-11T14:19:50;16.40;46.60
3071;DHT22;1546;47.208;9.038;2023-02-11T14:22:20;16.70;47.30
3071;DHT22;1546;47.208;9.038;2023-02-11T14:24:51;16.70;46.70
3071;DHT22;1546;47.208;9.038;2023-02-11T14:27:30;17.20;47.90
3071;DHT22;1546;47.208;9.038;2023-02-11T14:30:39;17.70;45.90
3071;DHT22;1546;47.208;9.038;2023-02-11T14:36:09;18.70;44.10
3071;DHT22;1546;47.208;9.038;2023-02-11T14:38:51;18.70;45.30
3071;DHT22;1546;47.208;9.038;2023-02-11T14:41:25;17.90;44.10
3071;DHT22;1546;47.208;9.038;2023-02-11T14:43:55;16.30;44.20
3071;DHT22;1546;47.208;9.038;2023-02-11T14:46:25;15.20;46.00
3071;DHT22;1546;47.208;9.038;2023-02-11T14:48:57;15.40;47.40
3071;DHT22;1546;47.208;9.038;2023-02-11T14:51:26;16.20;47.70
3071;DHT22;1546;47.208;9.038;2023-02-11T14:53:57;16.70;46.00
3071;DHT22;1546;47.208;9.038;2023-02-11T14:56:27;17.30;44.40
3071;DHT22;1546;47.208;9.038;2023-02-11T14:58:59;17.20;44.40
3071;DHT22;1546;47.208;9.038;2023-02-11T15:01:31;18.20;46.10
3071;DHT22;1546;47.208;9.038;2023-02-11T15:04:00;18.70;43.80
3071;DHT22;1546;47.208;9.038;2023-02-11T15:06:29;18.70;43.50
3071;DHT22;1546;47.208;9.038;2023-02-11T15:08:59;17.30;44.00
3071;DHT22;1546;47.208;9.038;2023-02-11T15:11:28;15.60;44.50
3071;DHT22;1546;47.208;9.038;2023-02-11T15:13:58;14.50;46.20
3071;DHT22;1546;47.208;9.038;2023-02-11T15:16:29;13.70;48.30
3071;DHT22;1546;47.208;9.038;2023-02-11T15:19:00;13.30;49.30
3071;DHT22;1546;47.208;9.038;2023-02-11T15:21:31;12.80;49.30
3071;DHT22;1546;47.208;9.038;2023-02-11T15:24:00;12.50;50.40
3071;DHT22;1546;47.208;9.038;2023-02-11T15:26:28;12.40;50.60
3071;DHT22;1546;47.208;9.038;2023-02-11T15:28:55;12.20;51.30
3071;DHT22;1546;47.208;9.038;2023-02-11T15:31:24;11.90;52.10
3071;DHT22;1546;47.208;9.038;2023-02-11T15:33:53;11.50;52.30
3071;DHT22;1546;47.208;9.038;2023-02-11T15:36:22;11.30;52.90
3071;DHT22;1546;47.208;9.038;2023-02-11T15:39:17;11.20;53.20
3071;DHT22;1546;47.208;9.038;2023-02-11T15:41:44;10.80;53.30
3071;DHT22;1546;47.208;9.038;2023-02-11T15:44:29;10.80;53.70
3071;DHT22;1546;47.208;9.038;2023-02-11T15:46:56;10.60;53.50
3071;DHT22;1546;47.208;9.038;2023-02-11T15:49:25;10.50;53.30
3071;DHT22;1546;47.208;9.038;2023-02-11T15:51:54;10.30;54.60
3071;DHT22;1546;47.208;9.038;2023-02-11T15:54:24;9.90;55.40
3071;DHT22;1546;47.208;9.038;2023-02-11T15:56:53;9.70;56.30
3071;DHT22;1546;47.208;9.038;2023-02-11T15:59:26;9.40;56.10
3071;DHT22;1546;47.208;9.038;2023-02-11T16:01:56;9.30;56.10
3071;DHT22;1546;47.208;9.038;2023-02-11T16:04:26;9.10;56.30
3071;DHT22;1546;47.208;9.038;2023-02-11T16:06:54;8.90;57.50
3071;DHT22;1546;47.208;9.038;2023-02-11T16:09:25;8.70;58.80
3071;DHT22;1546;47.208;9.038;2023-02-11T16:11:56;8.50;57.90
3071;DHT22;1546;47.208;9.038;2023-02-11T16:14:29;8.40;64.90
3071;DHT22;1546;47.208;9.038;2023-02-11T16:16:59;8.10;67.40
3071;DHT22;1546;47.208;9.038;2023-02-11T16:19:29;7.70;70.00
3071;DHT22;1546;47.208;9.038;2023-02-11T16:21:59;7.40;72.50
3071;DHT22;1546;47.208;9.038;2023-02-11T16:24:28;7.30;73.90
3071;DHT22;1546;47.208;9.038;2023-02-11T16:26:57;7.10;75.20
3071;DHT22;1546;47.208;9.038;2023-02-11T16:29:26;6.90;76.90
3071;DHT22;1546;47.208;9.038;2023-02-11T16:32:05;6.60;78.60
3071;DHT22;1546;47.208;9.038;2023-02-11T16:34:34;6.30;79.90
3071;DHT22;1546;47.208;9.038;2023-02-11T16:37:02;6.20;81.10
3071;DHT22;1546;47.208;9.038;2023-02-11T16:39:29;6.00;81.70
3071;DHT22;1546;47.208;9.038;2023-02-11T16:41:56;5.90;82.70
3071;DHT22;1546;47.208;9.038;2023-02-11T16:44:24;5.80;83.90
3071;DHT22;1546;47.208;9.038;2023-02-11T16:46:51;5.70;84.10